Time;durP1;ratioP1;P1;durP2;ratioP2;P2;SDS_P1;SDS_P2;PMS_P1;PMS_P2;Temp;Humidity;BMP_temperature;BMP_pressure;BME280_temperature;BME280_humidity;BME280_pressure;Samples;Min_cycle;Max_cycle;Signal;HPM_P1;HPM_P2
2021/12/09 00:01:03;;;;;;;5.88;4.07;;;;;;;;;;5014862;28;20160;-49
2021/12/09 00:03:32;;;;;;;6.15;4.10;;;;;;;;;;5014838;28;20531;-50
2021/12/09 00:05:58;;;;;;;10.20;5.07;;;;;;;;;;5015050;28;20187;-50
2021/12/09 00:08:26;;;;;;;5.60;3.78;;;;;;;;;;5014924;28;20242;-49
2021/12/09 00:10:53;;;;;;;5.68;4.97;;;;;;;;;;5014494;28;20164;-50
2021/12/09 00:13:20;;;;;;;12.93;4.28;;;;;;;;;;5015028;28;20572;-50
2021/12/09 00:15:46;;;;;;;8.27;3.97;;;;;;;;;;5014492;28;20598;-49
2021/12/09 00:18:12;;;;;;;9.25;3.90;;;;;;;;;;5014380;28;20299;-49
2021/12/09 00:20:38;;;;;;;5.32;4.18;;;;;;;;;;5014120;28;20225;-49
2021/12/09 00:23:04;;;;;;;9.83;5.57;;;;;;;;;;5014315;28;20255;-48
2021/12/09 00:25:30;;;;;;;10.63;5.00;;;;;;;;;;5014303;28;20423;-50
2021/12/09 00:27:56;;;;;;;11.97;4.90;;;;;;;;;;5014170;28;20694;-49
2021/12/09 00:30:22;;;;;;;17.50;4.77;;;;;;;;;;5013816;28;20546;-49
2021/12/09 00:32:48;;;;;;;6.07;3.60;;;;;;;;;;5013835;28;20502;-48
2021/12/09 00:35:16;;;;;;;5.47;3.85;;;;;;;;;;5013945;28;20926;-48
2021/12/09 00:37:56;;;;;;;4.18;3.78;;;;;;;;;;5013769;28;20196;-48
2021/12/09 00:40:22;;;;;;;9.70;4.65;;;;;;;;;;5013887;28;20183;-48
2021/12/09 00:42:48;;;;;;;8.90;4.27;;;;;;;;;;5014164;28;20644;-50
2021/12/09 00:45:14;;;;;;;5.70;4.03;;;;;;;;;;5013978;28;20399;-48
2021/12/09 00:47:40;;;;;;;10.55;4.90;;;;;;;;;;5014000;28;20173;-49
2021/12/09 00:50:07;;;;;;;5.33;4.57;;;;;;;;;;5013318;28;20211;-51
2021/12/09 00:52:33;;;;;;;7.80;4.70;;;;;;;;;;5014236;28;20680;-51
2021/12/09 00:54:59;;;;;;;6.43;4.15;;;;;;;;;;5013987;28;20667;-50
2021/12/09 00:57:26;;;;;;;4.30;3.60;;;;;;;;;;5014226;28;20578;-49
2021/12/09 00:59:52;;;;;;;7.75;4.43;;;;;;;;;;5013533;28;20192;-50
2021/12/09 01:02:18;;;;;;;8.77;4.60;;;;;;;;;;5014003;28;20663;-49
2021/12/09 01:04:46;;;;;;;8.43;4.63;;;;;;;;;;5013545;28;20640;-48
2021/12/09 01:07:12;;;;;;;7.70;4.40;;;;;;;;;;5013534;28;20171;-50
2021/12/09 01:09:38;;;;;;;7.83;4.73;;;;;;;;;;5013245;28;20192;-50
2021/12/09 01:12:06;;;;;;;6.83;3.63;;;;;;;;;;5013124;28;20411;-50
2021/12/09 01:14:32;;;;;;;7.60;3.88;;;;;;;;;;5013414;28;20399;-50
2021/12/09 01:16:58;;;;;;;10.17;4.87;;;;;;;;;;5013320;28;20219;-50
2021/12/09 01:19:24;;;;;;;7.93;4.10;;;;;;;;;;5013465;28;20423;-49
2021/12/09 01:21:50;;;;;;;5.68;4.10;;;;;;;;;;5013101;28;20400;-51
2021/12/09 01:24:16;;;;;;;7.30;4.28;;;;;;;;;;5013702;28;20160;-50
2021/12/09 01:26:42;;;;;;;6.73;4.20;;;;;;;;;;5012918;28;20187;-49
2021/12/09 01:29:17;;;;;;;4.97;3.88;;;;;;;;;;5013170;28;20466;-49
2021/12/09 01:31:52;;;;;;;10.27;3.90;;;;;;;;;;5012852;28;20167;-49
2021/12/09 01:34:20;;;;;;;6.22;4.15;;;;;;;;;;5013087;28;20172;-49
2021/12/09 01:36:48;;;;;;;8.82;4.10;;;;;;;;;;5012834;28;20738;-48
2021/12/09 01:39:14;;;;;;;8.20;4.20;;;;;;;;;;5013091;28;20181;-50
2021/12/09 01:41:40;;;;;;;5.18;4.68;;;;;;;;;;5012524;28;20188;-50
2021/12/09 01:44:06;;;;;;;7.60;4.60;;;;;;;;;;5012916;28;20196;-49
2021/12/09 01:46:33;;;;;;;14.38;4.35;;;;;;;;;;5012932;28;20399;-50
2021/12/09 01:48:59;;;;;;;9.70;4.72;;;;;;;;;;5012709;28;20283;-49
2021/12/09 01:51:26;;;;;;;6.00;3.93;;;;;;;;;;5012367;28;20260;-49
2021/12/09 01:53:52;;;;;;;8.77;4.45;;;;;;;;;;5012793;28;20478;-49
2021/12/09 01:56:20;;;;;;;7.15;4.05;;;;;;;;;;5012771;28;20180;-50
2021/12/09 02:01:50;;;;;;;6.97;3.60;;;;;;;;;;5010899;28;20580;-50
2021/12/09 02:04:16;;;;;;;7.10;4.15;;;;;;;;;;5011701;28;20161;-49
2021/12/09 02:06:42;;;;;;;6.87;3.70;;;;;;;;;;5012062;28;20169;-49
2021/12/09 02:09:09;;;;;;;10.75;4.75;;;;;;;;;;5011667;28;20423;-49
2021/12/09 02:11:35;;;;;;;16.50;4.95;;;;;;;;;;5011940;28;20628;-50
2021/12/09 02:14:01;;;;;;;6.93;4.20;;;;;;;;;;5012059;28;20179;-49
2021/12/09 02:16:28;;;;;;;11.43;4.38;;;;;;;;;;5012234;28;20593;-48
2021/12/09 02:18:54;;;;;;;7.30;4.07;;;;;;;;;;5012236;28;20192;-50
2021/12/09 02:21:21;;;;;;;8.13;5.10;;;;;;;;;;5012082;28;20644;-50
2021/12/09 02:23:48;;;;;;;8.10;4.15;;;;;;;;;;5012449;28;20168;-48
2021/12/09 02:26:15;;;;;;;10.82;4.40;;;;;;;;;;5012265;28;20239;-49
2021/12/09 02:28:42;;;;;;;5.22;4.15;;;;;;;;;;5011923;28;20806;-48
2021/12/09 02:31:08;;;;;;;12.48;4.13;;;;;;;;;;5011661;28;20187;-49
2021/12/09 02:33:34;;;;;;;16.90;5.22;;;;;;;;;;5012133;28;20188;-50
2021/12/09 02:36:00;;;;;;;4.90;4.45;;;;;;;;;;5011976;28;20168;-49
2021/12/09 02:38:26;;;;;;;7.57;5.10;;;;;;;;;;5011893;28;20204;-50
2021/12/09 02:40:55;;;;;;;7.38;4.45;;;;;;;;;;5011505;28;20411;-49
2021/12/09 02:43:26;;;;;;;9.85;4.57;;;;;;;;;;5011864;28;20164;-50
2021/12/09 02:45:53;;;;;;;6.78;4.80;;;;;;;;;;5011813;28;20600;-48
2021/12/09 02:48:20;;;;;;;6.13;4.18;;;;;;;;;;5011811;28;20199;-48
2021/12/09 02:50:47;;;;;;;9.85;4.35;;;;;;;;;;5011670;28;20234;-50
2021/12/09 02:53:13;;;;;;;11.13;5.40;;;;;;;;;;5011875;28;20169;-50
2021/12/09 02:55:39;;;;;;;7.82;4.40;;;;;;;;;;5012626;28;20172;-49
2021/12/09 02:58:05;;;;;;;4.10;3.63;;;;;;;;;;5011464;28;20239;-48
2021/12/09 03:00:31;;;;;;;6.30;4.20;;;;;;;;;;5011474;28;20256;-48
2021/12/09 03:02:59;;;;;;;11.98;4.88;;;;;;;;;;5011693;28;20242;-48
2021/12/09 03:05:25;;;;;;;8.32;4.63;;;;;;;;;;5011709;28;20167;-48
2021/12/09 03:07:52;;;;;;;9.95;4.22;;;;;;;;;;5011605;28;20196;-48
2021/12/09 03:10:22;;;;;;;5.65;3.95;;;;;;;;;;5011529;28;20699;-49
2021/12/09 03:12:50;;;;;;;7.80;4.80;;;;;;;;;;5013366;28;20168;-48
2021/12/09 03:15:16;;;;;;;8.32;4.50;;;;;;;;;;5015604;28;20628;-49
2021/12/09 03:17:43;;;;;;;5.50;3.97;;;;;;;;;;5015089;28;20278;-49
2021/12/09 03:20:10;;;;;;;11.40;4.72;;;;;;;;;;5014911;28;20156;-48
2021/12/09 03:22:38;;;;;;;8.00;4.50;;;;;;;;;;5015116;28;20567;-48
2021/12/09 03:25:07;;;;;;;11.65;4.57;;;;;;;;;;5015136;28;20243;-48
2021/12/09 03:27:33;;;;;;;6.97;4.18;;;;;;;;;;5014948;28;20164;-48
2021/12/09 03:29:59;;;;;;;10.03;5.23;;;;;;;;;;5014814;28;20176;-49
2021/12/09 03:32:25;;;;;;;10.43;4.00;;;;;;;;;;5015039;28;20403;-50
2021/12/09 03:34:52;;;;;;;4.03;3.63;;;;;;;;;;5015056;28;20900;-50
2021/12/09 03:37:20;;;;;;;15.07;3.95;;;;;;;;;;5015059;28;20486;-48
2021/12/09 03:39:47;;;;;;;7.85;5.75;;;;;;;;;;5014753;28;20203;-50
2021/12/09 03:42:14;;;;;;;11.13;5.60;;;;;;;;;;5014717;28;20168;-49
2021/12/09 03:44:42;;;;;;;11.50;5.05;;;;;;;;;;5014813;28;20694;-49
2021/12/09 03:47:09;;;;;;;10.32;4.80;;;;;;;;;;5014731;28;20270;-49
2021/12/09 03:49:36;;;;;;;14.02;5.22;;;;;;;;;;5014505;28;20205;-49
2021/12/09 03:52:03;;;;;;;6.55;4.43;;;;;;;;;;5014397;28;20206;-48
2021/12/09 03:54:29;;;;;;;15.05;5.35;;;;;;;;;;5014472;28;20222;-48
2021/12/09 03:56:55;;;;;;;8.73;4.77;;;;;;;;;;5014426;28;20212;-49
2021/12/09 03:59:21;;;;;;;6.10;4.53;;;;;;;;;;5014375;28;20427;-49
2021/12/09 04:01:47;;;;;;;7.20;5.00;;;;;;;;;;5014212;28;20489;-50
2021/12/09 04:04:14;;;;;;;14.15;5.10;;;;;;;;;;5014546;28;20710;-48
2021/12/09 04:06:41;;;;;;;6.68;4.30;;;;;;;;;;5014466;28;20182;-49
2021/12/09 04:09:09;;;;;;;8.88;4.85;;;;;;;;;;5014251;28;20360;-50
2021/12/09 04:11:35;;;;;;;8.85;5.75;;;;;;;;;;5012777;28;20202;-49
2021/12/09 04:14:03;;;;;;;6.75;4.95;;;;;;;;;;5014147;28;20185;-51
2021/12/09 04:16:29;;;;;;;8.07;5.47;;;;;;;;;;5014468;28;20200;-48
2021/12/09 04:18:55;;;;;;;7.75;4.30;;;;;;;;;;5013997;28;20275;-49
2021/12/09 04:21:21;;;;;;;5.28;4.38;;;;;;;;;;5013766;28;20180;-48
2021/12/09 04:23:47;;;;;;;9.30;5.15;;;;;;;;;;5013067;28;20169;-49
2021/12/09 04:26:13;;;;;;;9.30;4.87;;;;;;;;;;5013968;28;20213;-49
2021/12/09 04:28:40;;;;;;;8.70;5.17;;;;;;;;;;5013952;28;20787;-49
2021/12/09 04:31:07;;;;;;;6.13;4.20;;;;;;;;;;5013946;28;20392;-49
2021/12/09 04:33:33;;;;;;;9.40;4.97;;;;;;;;;;5013821;28;20164;-49
2021/12/09 04:35:59;;;;;;;4.75;4.05;;;;;;;;;;5013719;28;20538;-48
2021/12/09 04:38:25;;;;;;;10.75;4.68;;;;;;;;;;5013535;28;20294;-48
2021/12/09 04:40:52;;;;;;;8.27;4.65;;;;;;;;;;5013389;28;20177;-48
2021/12/09 04:43:17;;;;;;;9.07;4.35;;;;;;;;;;5013775;28;20175;-50
2021/12/09 04:45:43;;;;;;;16.60;5.77;;;;;;;;;;5013636;28;20229;-48
2021/12/09 04:48:11;;;;;;;10.10;4.97;;;;;;;;;;5013418;28;20434;-48
2021/12/09 04:50:39;;;;;;;11.30;5.30;;;;;;;;;;5013206;28;20437;-50
2021/12/09 04:53:07;;;;;;;10.27;4.90;;;;;;;;;;5013502;28;20176;-49
2021/12/09 04:55:34;;;;;;;5.32;4.50;;;;;;;;;;5013346;28;20179;-49
2021/12/09 04:58:00;;;;;;;5.93;4.50;;;;;;;;;;5013218;28;20210;-49
2021/12/09 05:00:28;;;;;;;8.70;5.30;;;;;;;;;;5013092;28;20165;-49
2021/12/09 05:03:04;;;;;;;13.05;5.05;;;;;;;;;;5013364;28;20167;-50
2021/12/09 05:05:36;;;;;;;7.05;4.40;;;;;;;;;;5013187;28;20168;-49
2021/12/09 05:08:05;;;;;;;8.85;4.88;;;;;;;;;;5013105;28;20184;-50
2021/12/09 05:10:35;;;;;;;10.05;4.53;;;;;;;;;;5012783;28;20699;-48
2021/12/09 05:13:02;;;;;;;8.50;5.32;;;;;;;;;;5012898;28;20678;-49
2021/12/09 05:15:28;;;;;;;13.63;5.32;;;;;;;;;;5013020;28;20262;-48
2021/12/09 05:17:55;;;;;;;15.15;4.47;;;;;;;;;;5012720;28;20683;-49
2021/12/09 05:20:22;;;;;;;17.85;4.90;;;;;;;;;;5012848;28;20188;-48
2021/12/09 05:22:48;;;;;;;7.45;5.05;;;;;;;;;;5012878;28;20576;-50
2021/12/09 05:25:14;;;;;;;5.85;4.65;;;;;;;;;;5012815;28;20199;-48
2021/12/09 05:27:41;;;;;;;11.97;6.23;;;;;;;;;;5012789;28;20172;-48
2021/12/09 05:30:12;;;;;;;10.57;4.78;;;;;;;;;;5012389;28;20395;-48
2021/12/09 05:32:38;;;;;;;8.02;5.35;;;;;;;;;;5013069;28;20189;-48
2021/12/09 05:35:04;;;;;;;9.80;4.60;;;;;;;;;;5012627;28;20665;-49
2021/12/09 05:37:31;;;;;;;10.88;4.55;;;;;;;;;;5012638;28;20503;-49
2021/12/09 05:39:57;;;;;;;9.40;4.95;;;;;;;;;;5012151;28;20196;-48
2021/12/09 05:42:24;;;;;;;7.72;5.18;;;;;;;;;;5012638;28;20173;-48
2021/12/09 05:44:50;;;;;;;7.22;5.03;;;;;;;;;;5012522;28;20268;-48
2021/12/09 05:47:19;;;;;;;7.25;4.30;;;;;;;;;;5012758;28;20175;-49
2021/12/09 05:49:46;;;;;;;8.35;4.88;;;;;;;;;;5012116;28;20294;-48
2021/12/09 05:52:13;;;;;;;17.30;4.80;;;;;;;;;;5012339;28;20183;-49
2021/12/09 05:54:48;;;;;;;11.88;5.85;;;;;;;;;;5012349;28;20636;-48
2021/12/09 05:57:15;;;;;;;16.55;5.25;;;;;;;;;;5012250;28;20759;-48
2021/12/09 05:59:43;;;;;;;8.85;5.03;;;;;;;;;;5012120;28;20188;-49
2021/12/09 06:02:10;;;;;;;7.63;5.07;;;;;;;;;;5012499;28;20164;-48
2021/12/09 06:04:37;;;;;;;10.27;5.32;;;;;;;;;;5012423;28;20561;-49
2021/12/09 06:07:05;;;;;;;8.68;5.28;;;;;;;;;;5012239;28;20191;-48
2021/12/09 06:09:31;;;;;;;10.27;4.93;;;;;;;;;;5012047;28;20196;-48
2021/12/09 06:11:59;;;;;;;10.27;5.07;;;;;;;;;;5011853;28;20674;-48
2021/12/09 06:14:25;;;;;;;12.50;5.90;;;;;;;;;;5012182;28;20527;-48
2021/12/09 06:16:52;;;;;;;7.13;4.82;;;;;;;;;;5012126;28;20627;-48
2021/12/09 06:19:21;;;;;;;6.40;4.50;;;;;;;;;;5012010;28;20207;-48
2021/12/09 06:21:48;;;;;;;10.90;6.07;;;;;;;;;;5011815;28;20751;-48
2021/12/09 06:24:14;;;;;;;16.55;5.68;;;;;;;;;;5011952;28;20176;-48
2021/12/09 06:26:42;;;;;;;7.05;5.10;;;;;;;;;;5011974;28;20652;-49
2021/12/09 06:29:08;;;;;;;10.27;4.82;;;;;;;;;;5011897;28;20215;-49
2021/12/09 06:31:35;;;;;;;6.63;4.30;;;;;;;;;;5011672;28;20183;-49
2021/12/09 06:34:01;;;;;;;10.75;5.40;;;;;;;;;;5011925;28;20168;-49
2021/12/09 06:36:27;;;;;;;7.15;4.90;;;;;;;;;;5011893;28;20195;-49
2021/12/09 06:38:53;;;;;;;7.70;4.85;;;;;;;;;;5011727;28;20191;-48
2021/12/09 06:41:19;;;;;;;8.60;4.97;;;;;;;;;;5011521;28;20242;-50
2021/12/09 06:43:45;;;;;;;16.55;5.15;;;;;;;;;;5011778;28;20956;-48
2021/12/09 06:46:12;;;;;;;10.80;5.10;;;;;;;;;;5011810;28;20168;-49
2021/12/09 06:48:39;;;;;;;7.22;4.70;;;;;;;;;;5014992;28;20546;-48
2021/12/09 06:51:07;;;;;;;6.88;4.45;;;;;;;;;;5015502;28;20313;-49
2021/12/09 06:53:33;;;;;;;8.15;5.20;;;;;;;;;;5015490;28;20243;-48
2021/12/09 06:55:59;;;;;;;8.65;4.75;;;;;;;;;;5015730;28;20183;-48
2021/12/09 06:58:25;;;;;;;6.20;4.47;;;;;;;;;;5015451;28;20200;-49
2021/12/09 07:00:54;;;;;;;11.52;5.70;;;;;;;;;;5015286;28;20911;-50
2021/12/09 07:03:21;;;;;;;7.22;5.10;;;;;;;;;;5015577;28;20191;-49
2021/12/09 07:05:48;;;;;;;8.10;4.60;;;;;;;;;;5015547;28;20620;-50
2021/12/09 07:08:14;;;;;;;6.13;4.78;;;;;;;;;;5015263;28;20272;-50
2021/12/09 07:10:40;;;;;;;9.77;4.65;;;;;;;;;;5015202;28;20172;-49
2021/12/09 07:13:06;;;;;;;6.53;5.65;;;;;;;;;;5015348;28;20208;-49
2021/12/09 07:15:34;;;;;;;13.10;4.93;;;;;;;;;;5015334;28;20265;-48
2021/12/09 07:18:00;;;;;;;8.48;5.70;;;;;;;;;;5015145;28;20713;-49
2021/12/09 07:20:30;;;;;;;10.43;5.97;;;;;;;;;;5014877;28;20177;-49
2021/12/09 07:22:58;;;;;;;10.65;6.45;;;;;;;;;;5015083;28;20186;-48
2021/12/09 07:25:25;;;;;;;7.40;4.97;;;;;;;;;;5015204;28;20176;-49
2021/12/09 07:27:52;;;;;;;12.65;5.80;;;;;;;;;;5015228;28;20211;-50
2021/12/09 07:30:24;;;;;;;10.07;5.53;;;;;;;;;;5014757;28;20251;-48
2021/12/09 07:32:51;;;;;;;6.05;4.85;;;;;;;;;;5015035;28;20179;-48
2021/12/09 07:35:17;;;;;;;10.52;5.68;;;;;;;;;;5014923;28;20218;-49
2021/12/09 07:37:44;;;;;;;14.23;7.75;;;;;;;;;;5014697;28;20679;-48
2021/12/09 07:40:12;;;;;;;12.52;4.90;;;;;;;;;;5014589;28;20588;-50
2021/12/09 07:42:38;;;;;;;11.48;5.18;;;;;;;;;;5014871;28;20248;-49
2021/12/09 07:45:04;;;;;;;9.25;4.93;;;;;;;;;;5014801;28;20537;-49
2021/12/09 07:47:30;;;;;;;8.38;4.95;;;;;;;;;;5014823;28;20170;-49
2021/12/09 07:49:56;;;;;;;10.03;5.50;;;;;;;;;;5014079;28;20226;-49
2021/12/09 07:52:22;;;;;;;7.03;4.10;;;;;;;;;;5014869;28;20414;-49
2021/12/09 07:54:48;;;;;;;18.47;6.60;;;;;;;;;;5014495;28;20974;-48
2021/12/09 07:57:14;;;;;;;11.40;6.10;;;;;;;;;;5014203;28;20462;-50
2021/12/09 07:59:40;;;;;;;11.25;6.35;;;;;;;;;;5013116;28;20428;-48
2021/12/09 08:02:07;;;;;;;7.13;5.10;;;;;;;;;;5013191;28;20168;-49
2021/12/09 08:04:33;;;;;;;8.77;5.93;;;;;;;;;;5013734;28;20399;-50
2021/12/09 08:07:00;;;;;;;8.20;5.57;;;;;;;;;;5013519;28;20173;-49
2021/12/09 08:09:27;;;;;;;9.95;5.60;;;;;;;;;;5011205;28;20450;-50
2021/12/09 08:11:54;;;;;;;10.65;6.07;;;;;;;;;;5014109;28;20184;-49
2021/12/09 08:14:20;;;;;;;7.10;5.27;;;;;;;;;;5014069;28;20731;-50
2021/12/09 08:16:56;;;;;;;8.45;4.25;;;;;;;;;;5014201;28;20466;-50
2021/12/09 08:19:23;;;;;;;11.25;4.57;;;;;;;;;;5013348;28;20191;-48
2021/12/09 08:21:51;;;;;;;10.43;5.35;;;;;;;;;;5013809;28;20659;-50
2021/12/09 08:24:17;;;;;;;6.60;4.65;;;;;;;;;;5014308;28;20177;-50
2021/12/09 08:26:43;;;;;;;9.50;4.37;;;;;;;;;;5014200;28;20552;-50
2021/12/09 08:29:09;;;;;;;8.17;3.93;;;;;;;;;;5014008;28;20427;-50
2021/12/09 08:31:35;;;;;;;13.10;5.20;;;;;;;;;;5013837;28;20408;-48
2021/12/09 08:34:01;;;;;;;6.05;4.80;;;;;;;;;;5014034;28;20524;-49
2021/12/09 08:36:27;;;;;;;9.32;4.75;;;;;;;;;;5014088;28;20624;-50
2021/12/09 08:38:53;;;;;;;7.03;4.50;;;;;;;;;;5014262;28;20199;-48
2021/12/09 08:41:23;;;;;;;9.57;4.43;;;;;;;;;;5013975;28;20807;-50
2021/12/09 08:43:49;;;;;;;8.45;4.30;;;;;;;;;;5014102;28;20391;-49
2021/12/09 08:46:17;;;;;;;6.68;3.00;;;;;;;;;;5014222;28;20168;-50
2021/12/09 08:48:43;;;;;;;12.95;4.85;;;;;;;;;;5014087;28;20280;-50
2021/12/09 08:51:09;;;;;;;6.93;4.35;;;;;;;;;;5014489;28;20172;-49
2021/12/09 08:53:35;;;;;;;14.75;4.57;;;;;;;;;;5014834;28;20214;-49
2021/12/09 08:56:02;;;;;;;10.98;4.97;;;;;;;;;;5034178;23;20239;-60
2021/12/09 08:58:29;;;;;;;6.00;3.83;;;;;;;;;;5013244;28;20204;-60
2021/12/09 09:00:57;;;;;;;11.07;4.15;;;;;;;;;;5012896;28;20666;-59
2021/12/09 09:03:23;;;;;;;8.50;4.60;;;;;;;;;;5011934;28;20165;-59
2021/12/09 09:05:49;;;;;;;13.10;5.67;;;;;;;;;;5011946;28;20443;-59
2021/12/09 09:08:15;;;;;;;7.43;3.90;;;;;;;;;;5013216;28;20417;-60
2021/12/09 09:10:42;;;;;;;8.17;4.03;;;;;;;;;;5011561;28;20491;-60
2021/12/09 09:13:08;;;;;;;7.10;5.07;;;;;;;;;;5013136;28;20416;-59
2021/12/09 09:15:36;;;;;;;7.93;3.87;;;;;;;;;;5013052;28;20426;-58
2021/12/09 09:18:02;;;;;;;5.77;3.60;;;;;;;;;;5013055;28;20440;-60
2021/12/09 09:20:30;;;;;;;9.23;4.10;;;;;;;;;;5013116;28;20945;-58
2021/12/09 09:22:57;;;;;;;10.90;4.10;;;;;;;;;;5013049;28;20436;-59
2021/12/09 09:25:29;;;;;;;11.57;4.20;;;;;;;;;;5013053;28;20509;-58
2021/12/09 09:27:55;;;;;;;6.93;3.93;;;;;;;;;;5012957;28;20466;-60
2021/12/09 09:30:21;;;;;;;6.93;3.50;;;;;;;;;;5012573;28;20400;-60
2021/12/09 09:32:48;;;;;;;11.47;3.90;;;;;;;;;;5012781;28;20515;-60
2021/12/09 09:35:15;;;;;;;6.03;3.70;;;;;;;;;;5012719;28;20887;-58
2021/12/09 09:37:41;;;;;;;9.43;4.40;;;;;;;;;;5012751;28;20546;-58
2021/12/09 09:40:12;;;;;;;7.60;3.20;;;;;;;;;;5012771;28;20482;-59
2021/12/09 09:45:04;;;;;;;8.57;3.50;;;;;;;;;;5012744;28;20754;-60
2021/12/09 09:47:30;;;;;;;7.93;3.90;;;;;;;;;;5012480;28;20828;-59
2021/12/09 09:49:58;;;;;;;6.50;3.90;;;;;;;;;;5012398;28;20450;-59
2021/12/09 09:52:24;;;;;;;5.90;4.43;;;;;;;;;;5012509;28;20456;-60
2021/12/09 09:54:51;;;;;;;6.57;3.80;;;;;;;;;;5012557;28;20892;-59
2021/12/09 09:57:18;;;;;;;8.10;4.30;;;;;;;;;;5012231;28;20466;-59
2021/12/09 09:59:44;;;;;;;13.07;4.57;;;;;;;;;;5012296;28;20401;-59
2021/12/09 10:02:12;;;;;;;7.47;4.17;;;;;;;;;;5012188;28;20412;-59
2021/12/09 10:04:46;;;;;;;4.13;3.70;;;;;;;;;;5012209;28;20441;-60
2021/12/09 10:07:13;;;;;;;7.50;4.07;;;;;;;;;;5012284;28;20424;-59
2021/12/09 10:09:39;;;;;;;4.60;3.57;;;;;;;;;;5012285;28;20400;-59
2021/12/09 10:12:07;;;;;;;5.10;4.40;;;;;;;;;;5010901;28;20462;-61
2021/12/09 10:14:34;;;;;;;7.30;3.90;;;;;;;;;;5012204;28;20409;-60
2021/12/09 10:17:03;;;;;;;6.30;4.53;;;;;;;;;;5012072;28;20468;-59
2021/12/09 10:19:29;;;;;;;6.43;4.83;;;;;;;;;;5012115;28;20458;-60
2021/12/09 10:22:10;;;;;;;5.87;4.20;;;;;;;;;;5011281;28;20435;-60
2021/12/09 10:24:37;;;;;;;6.93;4.03;;;;;;;;;;5012231;28;20886;-59
2021/12/09 10:27:03;;;;;;;8.40;5.07;;;;;;;;;;5012050;28;20423;-59
2021/12/09 10:29:37;;;;;;;4.72;4.30;;;;;;;;;;5012086;28;20427;-59
2021/12/09 10:32:10;;;;;;;8.43;4.80;;;;;;;;;;5011831;28;20176;-59
2021/12/09 10:34:43;;;;;;;7.40;4.75;;;;;;;;;;5011408;28;20188;-59
2021/12/09 10:37:09;;;;;;;14.55;4.72;;;;;;;;;;5006124;28;20204;-59
2021/12/09 10:39:35;;;;;;;7.70;4.80;;;;;;;;;;5011980;28;20711;-59
2021/12/09 10:42:04;;;;;;;8.70;4.37;;;;;;;;;;5011840;28;20319;-60
2021/12/09 10:44:36;;;;;;;10.35;5.32;;;;;;;;;;5011964;28;20403;-59
2021/12/09 10:47:09;;;;;;;6.68;4.30;;;;;;;;;;5009604;28;20836;-59
2021/12/09 10:50:05;;;;;;;8.93;3.80;;;;;;;;;;5011767;28;20165;-59
2021/12/09 10:52:38;;;;;;;5.40;4.10;;;;;;;;;;5011789;28;20907;-59
2021/12/09 10:55:25;;;;;;;4.73;4.20;;;;;;;;;;5011741;28;20406;-59
2021/12/09 10:57:56;;;;;;;7.33;4.53;;;;;;;;;;5011827;28;20452;-59
2021/12/09 11:00:30;;;;;;;6.90;4.13;;;;;;;;;;5011491;28;20559;-59
2021/12/09 11:02:57;;;;;;;5.70;4.50;;;;;;;;;;5010307;28;20400;-59
2021/12/09 11:05:23;;;;;;;11.57;4.60;;;;;;;;;;5009352;28;20433;-58
2021/12/09 11:07:49;;;;;;;6.10;4.93;;;;;;;;;;5028744;28;20459;-59
2021/12/09 11:10:21;;;;;;;7.57;3.90;;;;;;;;;;5003954;28;20911;-59
2021/12/09 11:12:50;;;;;;;7.20;4.60;;;;;;;;;;5010133;28;20502;-59
2021/12/09 11:15:18;;;;;;;7.70;4.10;;;;;;;;;;5011423;28;20439;-59
2021/12/09 11:17:47;;;;;;;8.13;4.50;;;;;;;;;;5011347;28;20955;-58
2021/12/09 11:20:14;;;;;;;4.77;4.30;;;;;;;;;;5011003;28;20450;-58
2021/12/09 11:22:43;;;;;;;8.43;4.38;;;;;;;;;;5006004;28;21031;-59
2021/12/09 11:25:40;;;;;;;9.47;5.67;;;;;;;;;;5010528;28;20173;-61
2021/12/09 11:28:13;;;;;;;6.30;3.83;;;;;;;;;;5011332;28;20402;-59
2021/12/09 11:31:03;;;;;;;8.20;4.50;;;;;;;;;;5009941;28;20417;-59
2021/12/09 11:33:34;;;;;;;7.40;4.80;;;;;;;;;;5011575;28;20408;-59
2021/12/09 11:36:02;;;;;;;11.33;4.93;;;;;;;;;;5013654;28;20447;-60
2021/12/09 11:38:45;;;;;;;8.60;5.10;;;;;;;;;;5015039;28;20478;-59
2021/12/09 11:41:32;;;;;;;12.03;5.20;;;;;;;;;;5014699;28;20530;-60
2021/12/09 11:43:59;;;;;;;5.90;5.30;;;;;;;;;;5013451;28;20445;-60
2021/12/09 11:46:25;;;;;;;8.18;4.90;;;;;;;;;;5014512;28;20259;-60
2021/12/09 11:48:51;;;;;;;7.90;4.40;;;;;;;;;;5013866;28;20177;-60
2021/12/09 11:51:17;;;;;;;7.17;4.87;;;;;;;;;;5024239;28;20428;-59
2021/12/09 11:53:44;;;;;;;9.03;5.03;;;;;;;;;;5034103;28;20402;-59
2021/12/09 11:56:26;;;;;;;7.77;4.60;;;;;;;;;;5033223;28;20462;-59
2021/12/09 12:13:35;;;;;;;6.55;4.53;;;;;;;;;;5034530;28;20218;-59
2021/12/09 12:16:21;;;;;;;9.32;5.80;;;;;;;;;;5032747;28;20229;-59
2021/12/09 12:18:59;;;;;;;5.53;4.68;;;;;;;;;;5032658;28;20253;-60
2021/12/09 12:22:24;;;;;;;12.05;5.47;;;;;;;;;;5033714;28;20191;-59
2021/12/09 12:25:31;;;;;;;9.75;5.07;;;;;;;;;;5030784;28;20245;-59
2021/12/09 12:27:43;;;;;;;8.35;5.10;;;;;;;;;;5028854;28;20207;-59
2021/12/09 12:35:57;;;;;;;7.40;5.53;;;;;;;;;;5033678;28;20561;-57
2021/12/09 12:40:57;;;;;;;7.32;4.95;;;;;;;;;;5033705;28;20313;-59
2021/12/09 12:43:43;;;;;;;4.97;4.38;;;;;;;;;;5033582;28;20180;-58
2021/12/09 12:46:34;;;;;;;10.10;4.83;;;;;;;;;;5032687;28;20274;-58
2021/12/09 12:52:12;;;;;;;5.50;4.10;;;;;;;;;;5011586;28;20280;-59
2021/12/09 12:54:56;;;;;;;10.75;4.60;;;;;;;;;;5013489;28;20752;-58
2021/12/09 12:57:33;;;;;;;6.20;4.18;;;;;;;;;;5013405;28;20207;-59
2021/12/09 13:00:08;;;;;;;4.80;4.30;;;;;;;;;;5012911;28;20192;-59
2021/12/09 13:05:45;;;;;;;8.13;4.95;;;;;;;;;;5012348;28;20193;-58
2021/12/09 13:19:11;;;;;;;10.05;4.65;;;;;;;;;;5013503;28;20667;-59
2021/12/09 13:21:40;;;;;;;6.50;4.27;;;;;;;;;;5011791;28;20534;-59
2021/12/09 13:27:05;;;;;;;8.48;4.85;;;;;;;;;;5013365;28;20192;-59
2021/12/09 13:29:59;;;;;;;15.73;5.53;;;;;;;;;;5013220;28;20176;-59
2021/12/09 13:46:24;;;;;;;6.57;4.53;;;;;;;;;;5011585;28;20322;-58
2021/12/09 13:49:08;;;;;;;7.00;4.45;;;;;;;;;;5011056;28;20171;-59
2021/12/09 13:56:46;;;;;;;6.55;4.35;;;;;;;;;;5012082;28;20238;-58
2021/12/09 13:59:17;;;;;;;5.65;3.80;;;;;;;;;;5011050;28;20184;-59
2021/12/09 14:01:43;;;;;;;6.30;4.25;;;;;;;;;;5011410;28;20168;-59
2021/12/09 14:04:09;;;;;;;5.72;3.72;;;;;;;;;;5010654;28;20168;-58
2021/12/09 14:06:35;;;;;;;7.95;4.05;;;;;;;;;;5011965;28;20725;-58
2021/12/09 14:09:03;;;;;;;6.03;4.40;;;;;;;;;;5012386;28;20176;-58
2021/12/09 14:11:35;;;;;;;7.22;4.63;;;;;;;;;;5012018;28;20164;-58
2021/12/09 14:14:08;;;;;;;9.48;4.05;;;;;;;;;;5012139;28;20173;-58
2021/12/09 14:16:45;;;;;;;5.28;4.18;;;;;;;;;;5012224;28;20184;-58
2021/12/09 14:21:38;;;;;;;5.40;4.05;;;;;;;;;;5011975;28;20176;-58
2021/12/09 14:24:09;;;;;;;7.60;3.63;;;;;;;;;;5012031;28;20190;-58
2021/12/09 14:26:35;;;;;;;4.30;3.65;;;;;;;;;;5011835;28;20184;-58
2021/12/09 14:29:02;;;;;;;5.32;3.92;;;;;;;;;;5012265;28;20543;-58
2021/12/09 14:31:28;;;;;;;6.97;3.90;;;;;;;;;;5011690;28;20221;-58
2021/12/09 14:33:54;;;;;;;11.02;4.00;;;;;;;;;;5011984;28;20168;-58
2021/12/09 14:36:20;;;;;;;6.72;4.10;;;;;;;;;;5011788;28;20192;-59
2021/12/09 14:38:47;;;;;;;10.65;5.07;;;;;;;;;;5010593;28;20211;-59
2021/12/09 14:41:16;;;;;;;11.48;3.88;;;;;;;;;;5011425;28;20168;-59
2021/12/09 14:43:45;;;;;;;7.05;3.53;;;;;;;;;;5011995;28;20160;-59
2021/12/09 14:46:12;;;;;;;7.32;4.13;;;;;;;;;;5011792;28;20180;-59
2021/12/09 14:48:39;;;;;;;5.93;4.32;;;;;;;;;;5011958;28;20171;-59
2021/12/09 14:51:20;;;;;;;4.28;3.88;;;;;;;;;;5011595;28;20655;-59
2021/12/09 14:53:48;;;;;;;9.20;4.47;;;;;;;;;;5011817;28;20238;-59
2021/12/09 14:56:29;;;;;;;5.95;3.80;;;;;;;;;;5021168;22;20367;-50
2021/12/09 14:59:15;;;;;;;8.35;4.40;;;;;;;;;;5012873;28;20270;-51
2021/12/09 15:01:41;;;;;;;7.53;4.30;;;;;;;;;;5012453;28;20644;-48
2021/12/09 15:04:17;;;;;;;8.00;4.25;;;;;;;;;;5013332;28;20168;-50
2021/12/09 15:06:51;;;;;;;5.30;3.80;;;;;;;;;;5012710;28;20691;-51
2021/12/09 15:09:18;;;;;;;4.80;4.28;;;;;;;;;;5015750;28;20294;-50
2021/12/09 15:11:47;;;;;;;5.28;3.42;;;;;;;;;;5016353;28;20160;-49
2021/12/09 15:14:33;;;;;;;7.68;4.40;;;;;;;;;;5016703;28;20156;-51
2021/12/09 15:17:07;;;;;;;8.07;4.20;;;;;;;;;;5016182;28;20279;-49
2021/12/09 15:19:33;;;;;;;9.63;4.70;;;;;;;;;;5016245;28;20243;-50
2021/12/09 15:22:10;;;;;;;5.05;4.28;;;;;;;;;;5016275;28;20526;-50
2021/12/09 15:24:37;;;;;;;8.07;4.38;;;;;;;;;;5016436;28;20160;-51
2021/12/09 15:27:03;;;;;;;4.63;3.33;;;;;;;;;;5016155;28;20216;-49
2021/12/09 15:29:30;;;;;;;6.65;4.45;;;;;;;;;;5016162;28;20178;-50
2021/12/09 15:31:59;;;;;;;4.65;4.22;;;;;;;;;;5016006;28;20169;-50
2021/12/09 15:34:31;;;;;;;7.90;5.03;;;;;;;;;;4994675;28;20300;-49
2021/12/09 15:37:02;;;;;;;4.45;3.80;;;;;;;;;;4995795;28;20663;-50
2021/12/09 15:39:29;;;;;;;6.95;4.95;;;;;;;;;;4993506;28;20239;-49
2021/12/09 15:42:01;;;;;;;6.10;4.97;;;;;;;;;;4992342;28;20169;-49
2021/12/09 15:44:27;;;;;;;7.57;4.63;;;;;;;;;;4994995;28;20545;-49
2021/12/09 15:46:55;;;;;;;9.48;4.75;;;;;;;;;;5005523;28;20219;-51
2021/12/09 15:49:23;;;;;;;8.68;5.05;;;;;;;;;;5002564;28;20289;-48
2021/12/09 15:51:51;;;;;;;4.88;4.07;;;;;;;;;;4975407;28;20181;-49
2021/12/09 15:54:18;;;;;;;10.55;5.30;;;;;;;;;;4993262;28;20188;-50
2021/12/09 15:56:47;;;;;;;9.80;5.65;;;;;;;;;;4976398;28;20211;-49
2021/12/09 15:59:14;;;;;;;8.65;4.88;;;;;;;;;;4992460;28;20184;-50